createdAt,value
2022-08-19T00:01:42.112Z,6.65
2022-08-19T00:04:12.474Z,6.10
2022-08-19T00:06:40.439Z,6.07
2022-08-19T00:09:11.143Z,7.18
2022-08-19T00:11:38.798Z,7.50
2022-08-19T00:14:08.237Z,5.95
2022-08-19T00:16:34.767Z,7.15
2022-08-19T00:19:01.183Z,6.88
2022-08-19T00:21:28.308Z,6.90
2022-08-19T00:23:58.976Z,6.15
2022-08-19T00:26:27.032Z,7.32
2022-08-19T00:28:53.456Z,6.88
2022-08-19T00:31:20.442Z,7.07
2022-08-19T00:33:46.836Z,6.75
2022-08-19T00:36:13.482Z,10.80
2022-08-19T00:38:44.196Z,9.00
2022-08-19T00:41:14.486Z,6.43
2022-08-19T00:43:42.131Z,5.50
2022-08-19T00:46:08.951Z,9.23
2022-08-19T00:48:37.000Z,6.53
2022-08-19T00:51:05.284Z,5.75
2022-08-19T00:53:34.287Z,7.07
2022-08-19T00:56:02.139Z,6.10
2022-08-19T00:58:33.341Z,5.55
2022-08-19T01:01:00.543Z,5.43
2022-08-19T01:03:27.011Z,6.30
2022-08-19T01:05:55.586Z,7.43
2022-08-19T01:08:23.125Z,5.50
2022-08-19T01:11:06.327Z,6.15
2022-08-19T01:13:44.609Z,6.63
2022-08-19T01:16:22.479Z,6.82
2022-08-19T01:18:49.990Z,5.25
2022-08-19T01:21:25.338Z,5.30
2022-08-19T01:23:51.954Z,6.72
2022-08-19T01:26:22.394Z,5.20
2022-08-19T01:31:26.734Z,4.97
2022-08-19T01:33:57.193Z,5.03
2022-08-19T01:36:29.132Z,5.03
2022-08-19T01:38:56.166Z,5.22
2022-08-19T01:41:24.406Z,5.20
2022-08-19T01:44:09.985Z,5.47
2022-08-19T01:46:44.461Z,6.10
2022-08-19T01:49:11.452Z,4.57
2022-08-19T01:51:40.302Z,7.32
2022-08-19T01:54:08.207Z,5.10
2022-08-19T01:56:34.770Z,4.65
2022-08-19T01:59:04.768Z,5.30
2022-08-19T02:01:33.371Z,4.63
2022-08-19T02:04:01.496Z,5.55
2022-08-19T02:06:29.655Z,4.57
2022-08-19T02:08:59.608Z,4.35
2022-08-19T02:11:31.468Z,5.07
2022-08-19T02:13:58.455Z,5.35
2022-08-19T02:16:29.752Z,4.90
2022-08-19T02:18:56.141Z,4.38
2022-08-19T02:21:24.387Z,4.68
2022-08-19T02:23:51.667Z,8.38
2022-08-19T02:26:19.564Z,4.72
2022-08-19T02:28:46.125Z,4.90
2022-08-19T02:31:19.418Z,5.85
2022-08-19T02:33:47.313Z,5.13
2022-08-19T02:36:20.598Z,6.15
2022-08-19T02:38:55.092Z,5.07
2022-08-19T02:41:26.874Z,5.28
2022-08-19T02:44:29.599Z,6.38
2022-08-19T02:46:49.069Z,6.47
2022-08-19T02:49:18.827Z,6.00
2022-08-19T02:51:46.791Z,5.93
2022-08-19T02:54:14.317Z,5.85
2022-08-19T02:56:42.342Z,5.53
2022-08-19T02:59:11.896Z,5.80
2022-08-19T03:01:43.639Z,6.20
2022-08-19T03:04:14.181Z,5.13
2022-08-19T03:06:43.557Z,6.13
2022-08-19T03:09:11.042Z,5.35
2022-08-19T03:11:38.398Z,6.68
2022-08-19T03:14:07.355Z,5.63
2022-08-19T03:16:40.602Z,5.72
2022-08-19T03:19:07.216Z,7.75
2022-08-19T03:21:35.324Z,5.15
2022-08-19T03:24:09.474Z,5.85
2022-08-19T03:26:40.287Z,5.80
2022-08-19T03:29:07.525Z,6.27
2022-08-19T03:31:43.871Z,5.55
2022-08-19T03:34:28.281Z,5.25
2022-08-19T03:36:56.394Z,5.28
2022-08-19T03:39:24.867Z,6.85
2022-08-19T03:42:31.708Z,6.10
2022-08-19T03:44:46.799Z,7.57
2022-08-19T03:47:19.436Z,8.57
2022-08-19T03:49:46.264Z,6.43
2022-08-19T03:52:14.298Z,9.07
2022-08-19T03:54:40.938Z,8.07
2022-08-19T03:57:07.749Z,7.05
2022-08-19T03:59:36.589Z,12.80
2022-08-19T04:02:10.057Z,8.63
2022-08-19T04:04:38.452Z,8.50
2022-08-19T04:07:05.628Z,10.68
2022-08-19T04:09:34.714Z,9.93
2022-08-19T04:12:01.172Z,10.10
2022-08-19T04:14:31.115Z,12.10
2022-08-19T04:16:59.821Z,8.05
2022-08-19T04:19:29.660Z,9.93
2022-08-19T04:21:56.545Z,9.95
2022-08-19T04:24:24.270Z,8.98
2022-08-19T04:26:51.747Z,9.60
2022-08-19T04:29:22.772Z,8.60
2022-08-19T04:31:50.016Z,9.38
2022-08-19T04:34:18.456Z,9.45
2022-08-19T04:36:52.060Z,9.27
2022-08-19T04:40:10.813Z,9.55
2022-08-19T04:42:40.514Z,8.82
2022-08-19T04:45:13.227Z,8.23
2022-08-19T04:47:46.877Z,8.75
2022-08-19T04:50:21.112Z,7.40
2022-08-19T04:52:47.550Z,6.72
2022-08-19T04:55:17.679Z,7.63
2022-08-19T04:57:44.117Z,7.40
2022-08-19T05:00:12.018Z,8.95
2022-08-19T05:02:42.720Z,7.72
2022-08-19T05:05:09.408Z,8.63
2022-08-19T05:07:36.802Z,10.00
2022-08-19T05:10:05.728Z,10.77
2022-08-19T05:12:32.244Z,10.75
2022-08-19T05:14:59.376Z,13.68
2022-08-19T05:17:29.632Z,14.23
2022-08-19T05:20:17.432Z,18.17
2022-08-19T05:22:45.803Z,18.98
2022-08-19T05:25:15.913Z,17.67
2022-08-19T05:27:43.267Z,20.73
2022-08-19T05:30:11.642Z,20.15
2022-08-19T05:32:39.211Z,19.35
2022-08-19T05:35:07.579Z,24.83
2022-08-19T05:37:34.239Z,25.50
2022-08-19T05:40:00.851Z,34.25
2022-08-19T05:42:27.393Z,35.42
2022-08-19T05:44:54.519Z,27.60
2022-08-19T05:47:22.503Z,29.95
2022-08-19T05:49:51.194Z,31.20
2022-08-19T05:52:18.850Z,34.20
2022-08-19T05:57:29.823Z,33.00
2022-08-19T05:59:58.864Z,33.05
2022-08-19T06:02:32.009Z,39.13
2022-08-19T06:04:58.688Z,40.72
2022-08-19T06:07:25.489Z,34.20
2022-08-19T06:09:58.914Z,35.50
2022-08-19T06:12:39.205Z,35.33
2022-08-19T06:15:15.449Z,33.88
2022-08-19T06:17:45.115Z,39.08
2022-08-19T06:20:15.042Z,39.00
2022-08-19T06:22:43.772Z,31.35
2022-08-19T06:25:11.498Z,41.45
2022-08-19T06:27:48.298Z,43.20
2022-08-19T06:30:25.261Z,43.08
2022-08-19T06:32:51.902Z,42.85
2022-08-19T06:35:19.790Z,45.17
2022-08-19T06:37:46.352Z,36.05
2022-08-19T06:40:13.448Z,44.80
2022-08-19T06:42:44.447Z,46.88
2022-08-19T06:45:21.451Z,52.08
2022-08-19T06:47:55.307Z,45.43
2022-08-19T06:50:21.900Z,49.22
2022-08-19T06:52:51.624Z,47.15
2022-08-19T06:55:19.757Z,52.80
2022-08-19T06:57:47.375Z,52.78
2022-08-19T07:00:15.085Z,57.58
2022-08-19T07:02:49.732Z,52.42
2022-08-19T07:05:22.157Z,52.75
2022-08-19T07:07:48.719Z,52.47
2022-08-19T07:10:17.418Z,69.68
2022-08-19T07:12:43.837Z,59.95
2022-08-19T07:15:11.756Z,62.53
2022-08-19T07:17:40.178Z,58.08
2022-08-19T07:20:09.390Z,65.60
2022-08-19T07:22:38.445Z,57.83
2022-08-19T07:25:07.221Z,56.65
2022-08-19T07:27:34.965Z,62.38
2022-08-19T07:30:12.270Z,58.95
2022-08-19T07:32:42.737Z,58.58
2022-08-19T07:35:11.491Z,58.58
2022-08-19T07:37:49.821Z,63.15
2022-08-19T07:40:18.369Z,61.20
2022-08-19T07:42:49.239Z,59.25
2022-08-19T07:45:17.948Z,54.53
2022-08-19T07:47:50.060Z,55.00
2022-08-19T07:50:20.274Z,54.45
2022-08-19T07:52:48.900Z,53.13
2022-08-19T07:55:41.840Z,60.80
2022-08-19T07:58:05.861Z,56.67
2022-08-19T08:00:32.820Z,55.83
2022-08-19T08:02:59.230Z,57.95
2022-08-19T08:05:50.172Z,55.08
2022-08-19T08:08:44.229Z,55.92
2022-08-19T08:11:16.206Z,55.00
2022-08-19T08:13:44.377Z,52.75
2022-08-19T08:16:19.871Z,54.30
2022-08-19T08:18:50.724Z,63.08
2022-08-19T08:21:19.818Z,55.35
2022-08-19T08:23:46.432Z,56.88
2022-08-19T08:26:16.326Z,50.40
2022-08-19T08:28:47.879Z,48.05
2022-08-19T08:31:16.300Z,57.30
2022-08-19T08:33:50.222Z,56.90
2022-08-19T08:36:17.249Z,55.33
2022-08-19T08:38:47.556Z,55.63
2022-08-19T08:41:28.443Z,58.88
2022-08-19T08:44:09.692Z,53.13
2022-08-19T08:46:52.738Z,51.45
2022-08-19T08:49:46.355Z,55.63
2022-08-19T08:52:25.793Z,45.83
2022-08-19T08:55:03.295Z,45.90
2022-08-19T08:57:52.074Z,48.58
2022-08-19T09:02:51.677Z,44.20
2022-08-19T09:05:22.705Z,46.95
2022-08-19T09:08:09.771Z,40.70
2022-08-19T09:10:47.132Z,43.65
2022-08-19T09:13:25.480Z,44.17
2022-08-19T09:15:59.345Z,41.08
2022-08-19T09:18:34.296Z,42.10
2022-08-19T09:21:01.124Z,39.72
2022-08-19T09:23:27.506Z,40.05
2022-08-19T09:25:54.309Z,40.75
2022-08-19T09:28:32.624Z,45.08
2022-08-19T09:31:08.197Z,39.22
2022-08-19T09:33:34.892Z,41.65
2022-08-19T09:36:09.480Z,41.78
2022-08-19T09:38:43.696Z,37.65
2022-08-19T09:41:18.102Z,35.72
2022-08-19T09:43:53.120Z,35.38
2022-08-19T09:46:22.885Z,37.53
2022-08-19T09:48:52.310Z,36.97
2022-08-19T09:51:25.215Z,30.23
2022-08-19T09:53:55.088Z,31.20
2022-08-19T09:56:23.527Z,31.40
2022-08-19T09:58:51.730Z,32.90
2022-08-19T10:01:27.234Z,32.85
2022-08-19T10:03:59.888Z,28.95
2022-08-19T10:06:45.941Z,33.50
2022-08-19T10:09:15.649Z,33.80
2022-08-19T10:11:54.679Z,28.27
2022-08-19T10:14:24.564Z,31.23
2022-08-19T10:16:52.766Z,27.75
2022-08-19T10:19:26.024Z,27.52
2022-08-19T10:21:53.524Z,26.25
2022-08-19T10:24:21.475Z,26.15
2022-08-19T10:26:56.013Z,26.85
2022-08-19T10:29:31.809Z,25.95
2022-08-19T10:32:09.794Z,24.23
2022-08-19T10:34:48.244Z,28.30
2022-08-19T10:37:23.706Z,26.75
2022-08-19T10:39:51.345Z,23.27
2022-08-19T10:42:27.707Z,21.88
2022-08-19T10:44:54.148Z,23.35
2022-08-19T10:47:25.911Z,25.70
2022-08-19T10:50:16.585Z,23.58
2022-08-19T10:52:49.640Z,25.75
2022-08-19T10:55:41.342Z,23.65
2022-08-19T10:58:14.121Z,22.67
2022-08-19T11:00:44.063Z,18.40
2022-08-19T11:03:12.526Z,23.30
2022-08-19T11:05:40.453Z,23.50
2022-08-19T11:08:23.795Z,19.52
2022-08-19T11:10:54.486Z,20.92
2022-08-19T11:13:21.128Z,23.58
2022-08-19T11:15:48.302Z,19.33
2022-08-19T11:18:14.703Z,18.83
2022-08-19T11:20:41.208Z,13.57
2022-08-19T11:23:08.013Z,14.38
2022-08-19T11:25:35.447Z,11.75
2022-08-19T11:28:01.964Z,9.45
2022-08-19T11:30:28.832Z,14.95
2022-08-19T11:32:57.679Z,12.95
2022-08-19T11:35:27.063Z,13.32
2022-08-19T11:37:53.633Z,15.38
2022-08-19T11:40:20.313Z,16.40
2022-08-19T11:42:56.434Z,21.27
2022-08-19T11:45:28.131Z,15.52
2022-08-19T11:47:55.395Z,19.30
2022-08-19T11:50:24.263Z,18.58
2022-08-19T11:52:54.968Z,13.75
2022-08-19T11:55:21.904Z,16.67
2022-08-19T11:57:48.400Z,19.10
2022-08-19T12:00:15.729Z,26.05
2022-08-19T12:02:43.516Z,27.13
2022-08-19T12:05:12.679Z,20.80
2022-08-19T12:07:40.543Z,16.23
2022-08-19T12:10:07.370Z,22.17
2022-08-19T12:12:34.663Z,19.08
2022-08-19T12:15:01.040Z,22.90
2022-08-19T12:17:28.155Z,15.32
2022-08-19T12:19:55.394Z,19.42
2022-08-19T12:22:22.297Z,16.50
2022-08-19T12:24:51.632Z,18.15
2022-08-19T12:27:25.480Z,15.25
2022-08-19T12:30:02.696Z,13.10
2022-08-19T12:32:29.139Z,12.27
2022-08-19T12:34:55.562Z,12.00
2022-08-19T12:37:22.182Z,10.73
2022-08-19T12:39:48.633Z,14.55
2022-08-19T12:42:15.773Z,11.60
2022-08-19T12:44:43.842Z,11.50
2022-08-19T12:47:12.804Z,10.43
2022-08-19T12:49:55.268Z,13.88
2022-08-19T12:52:26.793Z,10.48
2022-08-19T12:54:55.608Z,15.88
2022-08-19T12:57:32.592Z,10.45
2022-08-19T13:00:12.466Z,12.18
2022-08-19T13:02:41.580Z,9.90
2022-08-19T13:05:12.012Z,8.38
2022-08-19T13:07:40.577Z,7.33
2022-08-19T13:10:09.942Z,11.45
2022-08-19T13:12:36.878Z,8.57
2022-08-19T13:15:03.675Z,9.98
2022-08-19T13:17:39.122Z,8.05
2022-08-19T13:20:16.453Z,9.50
2022-08-19T13:22:46.771Z,8.73
2022-08-19T13:25:14.450Z,8.85
2022-08-19T13:27:43.811Z,9.45
2022-08-19T13:30:31.168Z,8.95
2022-08-19T13:33:18.052Z,8.95
2022-08-19T13:35:58.147Z,8.00
2022-08-19T13:38:27.111Z,5.45
2022-08-19T13:40:57.505Z,6.72
2022-08-19T13:43:27.187Z,7.82
2022-08-19T13:45:56.587Z,7.22
2022-08-19T13:48:24.438Z,9.40
2022-08-19T13:50:50.971Z,7.90
2022-08-19T13:53:18.287Z,6.22
2022-08-19T13:55:45.374Z,5.70
2022-08-19T13:58:12.327Z,6.95
2022-08-19T14:00:42.885Z,5.00
2022-08-19T14:03:09.928Z,4.55
2022-08-19T14:05:37.840Z,5.20
2022-08-19T14:08:06.792Z,6.05
2022-08-19T14:10:34.416Z,4.18
2022-08-19T14:13:08.909Z,5.80
2022-08-19T14:15:35.370Z,3.13
2022-08-19T14:18:02.257Z,4.18
2022-08-19T14:20:28.908Z,5.25
2022-08-19T14:22:55.974Z,3.47
2022-08-19T14:25:25.648Z,3.72
2022-08-19T14:27:52.436Z,3.05
2022-08-19T14:30:24.129Z,4.35
2022-08-19T14:32:50.537Z,3.78
2022-08-19T14:35:17.466Z,4.97
2022-08-19T14:37:56.305Z,3.42
2022-08-19T14:40:26.905Z,3.40
2022-08-19T14:43:00.098Z,4.63
2022-08-19T14:45:31.025Z,3.53
2022-08-19T14:48:00.883Z,5.18
2022-08-19T14:50:27.735Z,3.95
2022-08-19T14:53:09.097Z,4.53
2022-08-19T14:55:45.741Z,3.53
2022-08-19T14:58:29.312Z,4.13
2022-08-19T15:00:59.886Z,3.33
2022-08-19T15:03:27.235Z,6.00
2022-08-19T15:05:56.184Z,4.15
2022-08-19T15:08:25.629Z,4.55
2022-08-19T15:10:53.059Z,4.80
2022-08-19T15:13:19.627Z,6.70
2022-08-19T15:15:49.034Z,4.00
2022-08-19T15:18:17.890Z,4.63
2022-08-19T15:20:46.729Z,4.00
2022-08-19T15:23:17.654Z,6.97
2022-08-19T15:25:44.353Z,6.28
2022-08-19T15:28:14.273Z,5.10
2022-08-19T15:30:41.194Z,4.82
2022-08-19T15:33:08.493Z,6.40
2022-08-19T15:35:34.895Z,5.22
2022-08-19T15:38:01.777Z,6.03
2022-08-19T15:40:48.771Z,4.80
2022-08-19T15:43:16.554Z,8.07
2022-08-19T15:45:49.290Z,6.18
2022-08-19T15:48:17.764Z,8.52
2022-08-19T15:50:44.134Z,8.25
2022-08-19T15:53:11.627Z,8.90
2022-08-19T15:55:45.548Z,11.27
2022-08-19T15:58:32.862Z,7.60
2022-08-19T16:01:23.961Z,12.55
2022-08-19T16:04:14.776Z,7.78
2022-08-19T16:06:46.740Z,7.40
2022-08-19T16:09:17.260Z,6.53
2022-08-19T16:11:45.983Z,8.03
2022-08-19T16:14:14.758Z,8.85
2022-08-19T16:16:47.189Z,6.85
2022-08-19T16:19:16.236Z,7.35
2022-08-19T16:21:45.805Z,6.55
2022-08-19T16:24:13.975Z,6.10
2022-08-19T16:26:42.686Z,7.28
2022-08-19T16:29:12.141Z,7.18
2022-08-19T16:31:44.470Z,7.97
2022-08-19T16:34:15.610Z,5.55
2022-08-19T16:36:43.390Z,7.25
2022-08-19T16:39:12.221Z,7.50
2022-08-19T16:41:40.531Z,6.25
2022-08-19T16:44:07.801Z,6.30
2022-08-19T16:46:37.257Z,6.22
2022-08-19T16:49:05.019Z,7.28
2022-08-19T16:51:33.725Z,8.38
2022-08-19T16:54:02.067Z,6.07
2022-08-19T16:56:29.545Z,6.32
2022-08-19T16:58:56.165Z,6.97
2022-08-19T17:01:22.703Z,7.95
2022-08-19T17:03:51.926Z,6.95
2022-08-19T17:06:21.434Z,6.90
2022-08-19T17:08:49.991Z,7.43
2022-08-19T17:11:19.064Z,9.20
2022-08-19T17:13:47.553Z,7.88
2022-08-19T17:16:19.892Z,9.90
2022-08-19T17:18:46.311Z,7.05
2022-08-19T17:21:13.078Z,11.02
2022-08-19T17:23:42.885Z,8.35
2022-08-19T17:26:16.877Z,7.78
2022-08-19T17:28:50.386Z,8.38
2022-08-19T17:31:18.747Z,5.85
2022-08-19T17:33:48.488Z,5.72
2022-08-19T17:36:23.500Z,5.82
2022-08-19T17:38:51.194Z,5.50
2022-08-19T17:41:17.579Z,6.65
2022-08-19T17:43:44.307Z,6.28
2022-08-19T17:46:17.672Z,3.85
2022-08-19T17:48:51.505Z,4.68
2022-08-19T17:51:42.098Z,3.80
2022-08-19T17:54:15.654Z,2.80
2022-08-19T17:56:43.477Z,4.22
2022-08-19T17:59:13.741Z,4.70
2022-08-19T18:01:52.643Z,3.13
2022-08-19T18:04:21.997Z,3.03
2022-08-19T18:06:53.640Z,3.25
2022-08-19T18:09:23.799Z,4.82
2022-08-19T18:11:52.744Z,2.67
2022-08-19T18:14:20.866Z,5.40
2022-08-19T18:16:47.324Z,3.22
2022-08-19T18:19:13.731Z,3.97
2022-08-19T18:21:40.757Z,3.25
2022-08-19T18:24:07.702Z,6.05
2022-08-19T18:26:34.804Z,2.60
2022-08-19T18:29:01.781Z,3.45
2022-08-19T18:31:28.997Z,7.10
2022-08-19T18:33:55.498Z,3.33
2022-08-19T18:36:50.181Z,3.53
2022-08-19T18:39:29.205Z,3.15
2022-08-19T18:42:14.351Z,3.67
2022-08-19T18:45:00.049Z,3.08
2022-08-19T18:47:45.336Z,3.13
2022-08-19T18:50:15.212Z,3.47
2022-08-19T18:52:43.139Z,3.28
2022-08-19T18:55:09.763Z,2.90
2022-08-19T18:57:36.150Z,3.42
2022-08-19T19:00:04.554Z,3.38
2022-08-19T19:02:38.503Z,3.58
2022-08-19T19:05:07.587Z,3.25
2022-08-19T19:07:34.616Z,2.65
2022-08-19T19:10:01.003Z,2.45
2022-08-19T19:12:30.652Z,2.35
2022-08-19T19:14:58.668Z,2.47
2022-08-19T19:17:28.522Z,3.28
2022-08-19T19:19:55.278Z,4.22
2022-08-19T19:22:23.437Z,3.20
2022-08-19T19:24:50.772Z,3.42
2022-08-19T19:27:20.842Z,4.95
2022-08-19T19:29:52.340Z,2.80
2022-08-19T19:32:28.524Z,3.10
2022-08-19T19:34:55.558Z,4.53
2022-08-19T19:37:22.510Z,2.83
2022-08-19T19:39:49.074Z,4.35
2022-08-19T19:42:23.837Z,3.85
2022-08-19T19:44:55.554Z,4.10
2022-08-19T19:47:27.657Z,3.78
2022-08-19T19:52:45.442Z,4.13
2022-08-19T19:55:17.711Z,4.28
2022-08-19T19:57:48.860Z,4.03
2022-08-19T20:00:22.567Z,5.03
2022-08-19T20:02:50.911Z,4.30
2022-08-19T20:05:20.695Z,5.57
2022-08-19T20:08:08.462Z,5.20
2022-08-19T20:10:35.239Z,5.30
2022-08-19T20:13:02.888Z,7.10
2022-08-19T20:15:31.260Z,6.60
2022-08-19T20:17:59.721Z,8.20
2022-08-19T20:20:26.610Z,7.03
2022-08-19T20:22:57.064Z,10.50
2022-08-19T20:25:24.235Z,5.68
2022-08-19T20:27:51.338Z,7.35
2022-08-19T20:30:21.587Z,5.50
2022-08-19T20:32:50.371Z,6.85
2022-08-19T20:35:20.965Z,8.75
2022-08-19T20:37:47.981Z,7.10
2022-08-19T20:40:16.476Z,8.73
2022-08-19T20:42:48.208Z,10.13
2022-08-19T20:45:33.292Z,9.50
2022-08-19T20:48:02.667Z,7.55
2022-08-19T20:50:32.348Z,8.00
2022-08-19T20:52:59.255Z,9.23
2022-08-19T20:55:26.588Z,9.52
2022-08-19T20:57:53.470Z,10.15
2022-08-19T21:00:20.233Z,9.55
2022-08-19T21:02:47.008Z,8.98
2022-08-19T21:05:13.735Z,9.32
2022-08-19T21:07:40.238Z,9.60
2022-08-19T21:10:08.954Z,9.65
2022-08-19T21:12:35.673Z,9.68
2022-08-19T21:15:02.353Z,12.30
2022-08-19T21:17:28.707Z,10.88
2022-08-19T21:19:58.462Z,12.00
2022-08-19T21:22:25.931Z,10.48
2022-08-19T21:24:57.870Z,10.95
2022-08-19T21:27:24.309Z,8.32
2022-08-19T21:29:51.754Z,11.00
2022-08-19T21:32:19.684Z,9.93
2022-08-19T21:34:46.898Z,9.75
2022-08-19T21:37:19.043Z,10.63
2022-08-19T21:39:53.080Z,11.02
2022-08-19T21:42:19.625Z,11.52
2022-08-19T21:44:46.206Z,11.68
2022-08-19T21:47:13.093Z,9.20
2022-08-19T21:49:39.968Z,10.15
2022-08-19T21:52:09.056Z,10.32
2022-08-19T21:54:38.028Z,12.20
2022-08-19T21:57:10.484Z,11.02
2022-08-19T21:59:39.702Z,10.52
2022-08-19T22:02:21.510Z,11.88
2022-08-19T22:04:52.625Z,11.00
2022-08-19T22:07:22.531Z,11.60
2022-08-19T22:09:51.713Z,11.68
2022-08-19T22:12:29.133Z,11.45
2022-08-19T22:14:56.739Z,9.98
2022-08-19T22:17:24.445Z,11.27
2022-08-19T22:19:54.916Z,11.50
2022-08-19T22:22:30.538Z,10.60
2022-08-19T22:25:05.720Z,12.57
2022-08-19T22:27:32.731Z,10.38
2022-08-19T22:30:03.972Z,10.02
2022-08-19T22:32:31.011Z,9.27
2022-08-19T22:34:59.137Z,10.95
2022-08-19T22:37:27.456Z,10.80
2022-08-19T22:39:56.055Z,10.80
2022-08-19T22:42:22.474Z,10.80
2022-08-19T22:44:49.176Z,10.13
2022-08-19T22:47:16.382Z,10.38
2022-08-19T22:49:44.148Z,11.77
2022-08-19T22:52:20.369Z,11.35
2022-08-19T22:55:01.543Z,10.25
2022-08-19T22:57:28.470Z,12.73
2022-08-19T22:59:56.908Z,9.55
2022-08-19T23:02:51.888Z,8.82
2022-08-19T23:05:21.903Z,9.85
2022-08-19T23:07:52.499Z,8.55
2022-08-19T23:10:26.658Z,8.73
2022-08-19T23:12:59.280Z,11.68
2022-08-19T23:17:59.597Z,8.40
2022-08-19T23:20:29.547Z,10.40
2022-08-19T23:22:57.105Z,7.82
2022-08-19T23:25:27.666Z,8.77
2022-08-19T23:28:13.381Z,11.60
2022-08-19T23:30:44.557Z,8.07
2022-08-19T23:33:21.642Z,7.65
2022-08-19T23:35:48.492Z,9.52
2022-08-19T23:38:14.887Z,9.40
2022-08-19T23:40:41.286Z,7.03
2022-08-19T23:43:09.773Z,12.90
2022-08-19T23:45:40.696Z,6.32
2022-08-19T23:48:17.864Z,7.25
2022-08-19T23:50:47.486Z,8.93
2022-08-19T23:53:15.052Z,10.32
2022-08-19T23:55:44.643Z,11.82
2022-08-19T23:58:11.486Z,8.75
